Time;durP1;ratioP1;P1;durP2;ratioP2;P2;SDS_P1;SDS_P2;PMS_P1;PMS_P2;Temp;Humidity;BMP_temperature;BMP_pressure;BME280_temperature;BME280_humidity;BME280_pressure;Samples;Min_cycle;Max_cycle;Signal;HPM_P1;HPM_P2
2023/06/11 00:01:55;;;;;;;7.23;4.80;;;;;;;19.44;88.23;94108.25;5093310;28;20656;-46
2023/06/11 00:04:25;;;;;;;5.87;5.27;;;;;;;19.41;88.44;94106.06;5093368;28;20250;-44
2023/06/11 00:06:53;;;;;;;9.53;5.20;;;;;;;19.37;88.46;94104.88;5093132;28;20192;-44
2023/06/11 00:09:20;;;;;;;7.17;4.93;;;;;;;19.35;88.47;94115.47;5093326;28;20296;-44
2023/06/11 00:11:47;;;;;;;5.50;4.90;;;;;;;19.28;88.60;94102.50;5092875;28;20185;-46
2023/06/11 00:14:15;;;;;;;6.27;5.27;;;;;;;19.26;88.84;94104.53;5093346;28;20189;-46
2023/06/11 00:16:43;;;;;;;8.27;5.20;;;;;;;19.23;89.07;94101.53;5092740;28;20240;-42
2023/06/11 00:19:10;;;;;;;8.13;5.83;;;;;;;19.21;88.97;94103.53;5092773;28;20220;-44
2023/06/11 00:21:40;;;;;;;9.00;5.80;;;;;;;19.15;88.98;94097.38;5092680;28;20189;-45
2023/06/11 00:24:07;;;;;;;6.30;4.73;;;;;;;19.16;89.30;94100.75;5092889;28;20974;-44
2023/06/11 00:26:34;;;;;;;7.53;5.33;;;;;;;19.15;89.26;94107.75;5092741;28;20185;-46
2023/06/11 00:29:01;;;;;;;6.83;4.97;;;;;;;19.16;89.64;94103.34;5092871;28;20251;-45
2023/06/11 00:31:29;;;;;;;7.90;5.47;;;;;;;19.12;89.90;94102.97;5092493;28;20200;-45
2023/06/11 00:33:56;;;;;;;5.83;4.93;;;;;;;19.11;89.91;94113.53;5092802;28;20216;-45
2023/06/11 00:36:26;;;;;;;6.47;5.57;;;;;;;19.07;90.06;94114.94;5092327;28;20198;-45
2023/06/11 00:38:53;;;;;;;7.70;5.57;;;;;;;19.02;90.16;94108.56;5092815;28;20235;-42
2023/06/11 00:41:21;;;;;;;7.17;5.43;;;;;;;19.00;90.47;94108.00;5092558;28;20194;-45
2023/06/11 00:43:48;;;;;;;6.43;5.20;;;;;;;18.99;90.61;94108.97;5092718;28;20236;-44
2023/06/11 00:46:16;;;;;;;8.60;5.13;;;;;;;18.79;90.62;94077.94;5092498;28;20230;-44
2023/06/11 00:48:45;;;;;;;7.47;5.27;;;;;;;18.74;90.93;94069.22;5092218;28;20216;-45
2023/06/11 00:51:12;;;;;;;6.03;5.47;;;;;;;18.93;91.09;94102.03;5092454;28;20240;-45
2023/06/11 00:53:38;;;;;;;6.30;5.30;;;;;;;18.94;91.33;94106.19;5091968;28;20189;-45
2023/06/11 00:56:05;;;;;;;5.60;5.00;;;;;;;18.94;91.44;94100.22;5092619;28;20193;-46
2023/06/11 00:58:33;;;;;;;6.30;5.23;;;;;;;18.86;91.43;94097.84;5090988;28;20298;-46
2023/06/11 01:01:01;;;;;;;7.67;6.33;;;;;;;18.89;91.48;94100.84;5092260;28;20243;-44
2023/06/11 01:03:28;;;;;;;7.07;5.40;;;;;;;18.89;91.74;94103.44;5092118;28;20193;-45
2023/06/11 01:06:01;;;;;;;6.40;5.80;;;;;;;18.87;91.99;94099.44;5092309;28;20273;-44
2023/06/11 01:08:30;;;;;;;7.47;6.10;;;;;;;18.83;92.19;94106.84;5091829;28;20194;-45
2023/06/11 01:10:59;;;;;;;8.93;5.90;;;;;;;18.81;92.59;94108.81;5092036;28;20201;-45
2023/06/11 01:13:26;;;;;;;10.73;6.00;;;;;;;18.80;92.57;94105.44;5091788;28;20221;-45
2023/06/11 01:15:56;;;;;;;6.43;5.80;;;;;;;18.82;92.59;94104.44;5092176;28;20213;-45
2023/06/11 01:18:28;;;;;;;7.23;6.03;;;;;;;18.84;93.09;94111.03;5091484;28;20197;-46
2023/06/11 01:21:02;;;;;;;5.80;4.90;;;;;;;18.78;92.98;94111.81;5091825;28;20178;-47
2023/06/11 01:23:40;;;;;;;7.03;5.43;;;;;;;18.74;92.82;94103.66;5091673;28;20197;-45
2023/06/11 01:26:35;;;;;;;5.93;5.33;;;;;;;18.70;93.20;94109.47;5091901;28;20281;-46
2023/06/11 01:29:06;;;;;;;6.17;5.57;;;;;;;18.66;93.23;94108.25;5091723;28;20311;-45
2023/06/11 01:31:37;;;;;;;5.70;5.17;;;;;;;18.66;93.04;94106.44;5091363;28;20650;-46
2023/06/11 01:34:05;;;;;;;7.33;5.70;;;;;;;18.62;93.08;94102.66;5091949;28;20251;-47
2023/06/11 01:36:34;;;;;;;6.13;5.47;;;;;;;18.58;93.10;94101.47;5091500;28;20281;-44
2023/06/11 01:39:01;;;;;;;9.27;5.47;;;;;;;18.58;93.13;94095.50;5091168;28;20224;-44
2023/06/11 01:41:28;;;;;;;5.77;5.10;;;;;;;18.56;93.04;94098.28;5091422;28;20554;-45
2023/06/11 01:43:55;;;;;;;7.33;5.03;;;;;;;18.45;92.96;94085.94;5091237;28;20190;-44
2023/06/11 01:46:23;;;;;;;12.13;5.27;;;;;;;18.54;93.23;94095.09;5091679;28;20219;-42
2023/06/11 01:48:50;;;;;;;7.33;5.57;;;;;;;18.49;93.01;94100.88;5091140;28;20197;-46
2023/06/11 01:51:17;;;;;;;5.60;5.10;;;;;;;18.52;92.95;94097.06;5091210;28;20215;-46
2023/06/11 01:53:44;;;;;;;6.00;5.40;;;;;;;18.26;92.97;94067.66;5091152;28;20194;-47
2023/06/11 01:56:11;;;;;;;7.23;4.60;;;;;;;18.56;92.75;94104.25;5091125;28;20549;-46
2023/06/11 01:58:38;;;;;;;5.87;5.07;;;;;;;18.59;92.56;94112.63;5090933;28;20209;-46
2023/06/11 02:01:08;;;;;;;5.07;4.57;;;;;;;18.55;92.39;94099.28;5091878;28;20665;-46
2023/06/11 02:03:36;;;;;;;5.77;5.17;;;;;;;18.65;91.99;94112.63;5091067;28;20189;-46
2023/06/11 02:06:03;;;;;;;7.10;4.80;;;;;;;18.58;91.87;94106.66;5091019;28;20201;-45
2023/06/11 02:08:29;;;;;;;6.27;5.13;;;;;;;18.59;92.05;94104.84;5090808;28;20193;-45
2023/06/11 02:10:56;;;;;;;5.53;4.80;;;;;;;18.62;91.95;94107.84;5090728;28;20190;-44
2023/06/11 02:13:25;;;;;;;6.90;4.93;;;;;;;18.64;91.94;94116.19;5091019;28;20177;-44
2023/06/11 02:15:52;;;;;;;5.67;5.07;;;;;;;18.62;91.79;94107.03;5090787;28;20221;-46
2023/06/11 02:18:19;;;;;;;5.70;5.07;;;;;;;18.67;91.68;94115.00;5090843;28;20549;-45
2023/06/11 02:20:47;;;;;;;5.83;5.23;;;;;;;18.72;91.50;94113.44;5090369;28;20210;-44
2023/06/11 02:23:14;;;;;;;6.23;4.97;;;;;;;18.72;91.16;94120.41;5090702;28;20197;-46
2023/06/11 02:25:40;;;;;;;6.07;4.73;;;;;;;18.69;91.17;94116.41;5090283;28;20194;-45
2023/06/11 02:28:07;;;;;;;5.90;5.40;;;;;;;18.64;91.31;94116.19;5090396;28;20192;-44
2023/06/11 02:30:34;;;;;;;5.73;5.10;;;;;;;18.60;91.62;94109.81;5090253;28;20189;-46
2023/06/11 02:33:01;;;;;;;4.73;4.33;;;;;;;18.57;91.62;94115.41;5090501;28;20618;-45
2023/06/11 02:35:28;;;;;;;8.77;5.53;;;;;;;18.56;91.79;94113.81;5090223;28;20185;-44
2023/06/11 02:37:56;;;;;;;6.30;4.63;;;;;;;18.52;91.91;94105.66;5090333;28;20190;-45
2023/06/11 02:40:22;;;;;;;7.07;5.77;;;;;;;18.56;91.78;94108.63;5089764;28;20237;-45
2023/06/11 02:42:49;;;;;;;8.37;5.70;;;;;;;18.62;91.89;94113.03;5090536;28;20194;-46
2023/06/11 02:45:16;;;;;;;6.47;5.83;;;;;;;18.64;91.52;94108.41;5089970;28;20653;-44
2023/06/11 02:47:43;;;;;;;7.13;5.20;;;;;;;18.66;91.67;94111.63;5090161;28;20189;-44
2023/06/11 02:50:10;;;;;;;8.40;4.93;;;;;;;18.67;91.79;94115.00;5090012;28;20178;-45
2023/06/11 02:52:37;;;;;;;7.13;5.17;;;;;;;18.66;91.98;94106.44;5090304;28;20193;-45
2023/06/11 02:55:06;;;;;;;6.13;5.27;;;;;;;18.66;91.86;94110.81;5089778;28;20569;-45
2023/06/11 02:57:33;;;;;;;6.17;5.57;;;;;;;18.68;91.91;94108.81;5089919;28;20788;-46
2023/06/11 03:00:00;;;;;;;6.50;5.57;;;;;;;18.73;91.62;94109.03;5089956;28;20275;-44
2023/06/11 03:02:27;;;;;;;9.43;5.53;;;;;;;18.71;91.74;94111.84;5089915;28;20600;-45
2023/06/11 03:04:53;;;;;;;6.90;5.53;;;;;;;18.72;91.79;94112.63;5089869;28;20680;-44
2023/06/11 03:07:20;;;;;;;6.00;5.27;;;;;;;18.73;91.77;94109.03;5089645;28;20193;-46
2023/06/11 03:09:47;;;;;;;7.83;5.60;;;;;;;18.72;91.97;94108.25;5089594;28;20193;-46
2023/06/11 03:12:15;;;;;;;6.13;5.30;;;;;;;18.74;91.65;94108.06;5089618;28;20198;-45
2023/06/11 03:14:42;;;;;;;12.63;6.33;;;;;;;18.76;91.57;94116.41;5089962;28;20193;-45
2023/06/11 03:17:09;;;;;;;8.33;5.80;;;;;;;18.75;91.64;94120.81;5089446;28;20278;-47
2023/06/11 03:19:36;;;;;;;6.23;5.60;;;;;;;18.77;91.59;94118.00;5089632;28;20221;-43
2023/06/11 03:22:03;;;;;;;8.97;5.13;;;;;;;18.79;91.34;94123.78;5088972;28;20185;-46
2023/06/11 03:24:29;;;;;;;6.70;5.97;;;;;;;18.85;91.11;94124.75;5089378;28;20262;-44
2023/06/11 03:26:56;;;;;;;6.93;5.87;;;;;;;18.90;90.85;94123.16;5089936;28;20615;-45
2023/06/11 03:29:24;;;;;;;7.70;5.83;;;;;;;18.90;90.81;94127.53;5089633;28;20201;-45
2023/06/11 03:31:51;;;;;;;6.70;5.83;;;;;;;18.90;90.92;94130.13;5089665;28;20186;-45
2023/06/11 03:34:18;;;;;;;6.73;6.13;;;;;;;18.93;90.76;94132.31;5089369;28;20193;-46
2023/06/11 03:36:44;;;;;;;6.60;5.90;;;;;;;18.97;90.61;94139.50;5089592;28;20190;-42
2023/06/11 03:39:11;;;;;;;8.33;5.97;;;;;;;18.96;90.46;94142.28;5089077;28;20189;-44
2023/06/11 03:41:38;;;;;;;7.27;6.40;;;;;;;19.02;90.35;94154.44;5089600;28;20580;-44
2023/06/11 03:44:05;;;;;;;10.47;7.70;;;;;;;19.04;90.11;94157.59;5089502;28;20193;-46
2023/06/11 03:46:33;;;;;;;8.87;7.07;;;;;;;19.09;89.82;94154.44;5089517;28;20194;-44
2023/06/11 03:49:01;;;;;;;11.30;7.73;;;;;;;19.06;89.02;94145.25;5089383;28;20189;-44
2023/06/11 03:51:28;;;;;;;8.27;6.93;;;;;;;19.15;89.13;94156.19;5089604;28;20522;-47
2023/06/11 03:53:55;;;;;;;12.07;7.20;;;;;;;19.17;89.22;94143.81;5089161;28;20198;-47
2023/06/11 03:56:21;;;;;;;8.32;6.93;;;;;;;19.19;89.07;94149.59;5089826;28;20194;-46
2023/06/11 03:58:48;;;;;;;10.77;6.57;;;;;;;19.17;88.29;94143.81;5089347;28;20282;-45
2023/06/11 04:01:15;;;;;;;8.27;7.03;;;;;;;19.18;88.05;94148.81;5089537;28;20298;-45
2023/06/11 04:03:43;;;;;;;8.23;7.10;;;;;;;19.18;88.08;94142.84;5089608;28;20194;-44
2023/06/11 04:06:10;;;;;;;7.73;6.53;;;;;;;19.20;88.03;94148.59;5089880;28;20198;-45
2023/06/11 04:08:38;;;;;;;8.83;7.47;;;;;;;19.25;87.57;94146.97;5089336;28;20633;-46
2023/06/11 04:11:04;;;;;;;10.90;6.43;;;;;;;19.28;87.21;94136.22;5089416;28;20194;-46
2023/06/11 04:13:31;;;;;;;8.77;5.97;;;;;;;19.39;86.70;94141.78;5089601;28;20197;-45
2023/06/11 04:15:58;;;;;;;8.33;5.60;;;;;;;19.44;85.80;94145.34;5089043;28;20601;-44
2023/06/11 04:18:26;;;;;;;7.13;5.63;;;;;;;19.45;84.98;94146.91;5089283;28;20194;-45
2023/06/11 04:20:54;;;;;;;8.73;5.63;;;;;;;19.48;84.36;94143.94;5088991;28;20254;-44
2023/06/11 04:23:21;;;;;;;7.97;5.17;;;;;;;19.51;84.09;94145.28;5089719;28;20212;-45
2023/06/11 04:25:48;;;;;;;7.93;6.17;;;;;;;19.53;84.31;94148.50;5089341;28;20580;-45
2023/06/11 04:28:16;;;;;;;8.40;5.87;;;;;;;19.28;84.10;94110.28;5089567;28;20276;-46
2023/06/11 04:30:43;;;;;;;8.40;5.50;;;;;;;19.59;83.95;94154.66;5089120;28;20200;-44
2023/06/11 04:33:09;;;;;;;6.53;5.68;;;;;;;19.63;83.66;94151.47;5089125;28;20190;-44
2023/06/11 04:35:37;;;;;;;7.38;5.93;;;;;;;19.68;83.78;94148.25;5092376;28;20734;-44
2023/06/11 04:38:05;;;;;;;6.07;5.43;;;;;;;19.73;83.35;94140.63;5092717;28;20217;-46
2023/06/11 04:40:33;;;;;;;9.07;5.78;;;;;;;19.71;83.36;94145.25;5092754;28;20269;-45
2023/06/11 04:43:00;;;;;;;7.30;5.17;;;;;;;19.83;83.11;94145.41;5092736;28;20194;-45
2023/06/11 04:45:28;;;;;;;7.03;5.95;;;;;;;19.80;82.91;94137.00;5092829;28;20189;-45
2023/06/11 04:47:55;;;;;;;8.65;5.90;;;;;;;19.65;82.89;94113.16;5092566;28;20634;-45
2023/06/11 04:50:22;;;;;;;8.63;6.13;;;;;;;19.88;82.71;94141.16;5092510;28;20557;-46
2023/06/11 04:52:51;;;;;;;7.50;5.43;;;;;;;19.89;82.42;94134.16;5092273;28;20575;-43
2023/06/11 04:55:21;;;;;;;9.00;5.87;;;;;;;19.91;82.53;94135.56;5092660;28;20588;-51
2023/06/11 04:57:49;;;;;;;9.13;5.67;;;;;;;19.91;82.08;94143.34;5092378;28;20193;-45
2023/06/11 05:00:17;;;;;;;7.55;6.00;;;;;;;19.88;82.61;94143.75;5092327;28;20236;-45
2023/06/11 05:02:44;;;;;;;7.32;5.47;;;;;;;19.91;82.67;94151.13;5091967;28;20193;-45
2023/06/11 05:05:12;;;;;;;9.43;6.27;;;;;;;19.92;82.98;94144.16;5092345;28;20221;-43
2023/06/11 05:07:39;;;;;;;6.20;5.70;;;;;;;19.78;83.00;94117.47;5092172;28;20684;-46
2023/06/11 05:10:07;;;;;;;6.60;5.50;;;;;;;20.02;82.65;94145.25;5093258;28;20243;-48
2023/06/11 05:12:35;;;;;;;7.13;6.40;;;;;;;20.06;80.94;94148.25;5094158;28;20189;-42
2023/06/11 05:15:02;;;;;;;9.35;6.18;;;;;;;20.02;81.13;94142.66;5093264;28;20194;-44
2023/06/11 05:17:29;;;;;;;8.90;6.10;;;;;;;20.08;80.71;94145.44;5092980;28;20221;-44
2023/06/11 05:19:56;;;;;;;7.55;6.53;;;;;;;20.00;81.08;94141.31;5092820;28;20221;-45
2023/06/11 05:22:23;;;;;;;9.07;5.68;;;;;;;20.09;80.97;94150.44;5095331;28;20193;-43
2023/06/11 05:24:49;;;;;;;6.53;5.80;;;;;;;20.20;80.55;94157.53;5093776;28;20292;-46
2023/06/11 05:27:16;;;;;;;6.63;5.43;;;;;;;20.27;79.63;94153.09;5095214;28;20591;-45
2023/06/11 05:29:45;;;;;;;7.45;5.53;;;;;;;20.38;79.24;94159.44;5094350;28;20675;-46
2023/06/11 05:32:14;;;;;;;4.97;4.35;;;;;;;20.51;78.42;94163.75;5095070;28;20284;-46
2023/06/11 05:34:41;;;;;;;7.95;5.18;;;;;;;20.67;77.71;94165.81;5094359;28;20197;-47
2023/06/11 05:37:08;;;;;;;5.75;4.97;;;;;;;20.82;76.69;94165.50;5094890;28;20201;-45
2023/06/11 05:39:35;;;;;;;5.55;4.28;;;;;;;20.95;75.26;94157.56;5094282;28;20193;-46
2023/06/11 05:42:01;;;;;;;5.43;4.18;;;;;;;21.11;74.56;94163.22;5094174;28;20189;-43
2023/06/11 05:44:28;;;;;;;5.45;4.28;;;;;;;21.24;73.61;94166.50;5093401;28;20197;-46
2023/06/11 05:46:57;;;;;;;5.05;4.25;;;;;;;21.35;72.73;94165.00;5094379;28;20673;-48
2023/06/11 05:49:23;;;;;;;5.22;4.72;;;;;;;21.51;72.00;94174.81;5093050;28;20274;-44
2023/06/11 05:51:50;;;;;;;6.25;4.68;;;;;;;21.59;72.14;94170.31;5091818;28;20197;-45
2023/06/11 05:54:17;;;;;;;4.55;4.00;;;;;;;21.71;71.42;94171.97;5092456;28;20783;-47
2023/06/11 05:56:45;;;;;;;7.07;4.65;;;;;;;21.83;71.15;94173.84;5093820;28;20641;-47
2023/06/11 05:59:11;;;;;;;5.63;4.40;;;;;;;21.89;70.43;94171.16;5090958;28;20190;-45
2023/06/11 06:01:38;;;;;;;6.15;4.07;;;;;;;21.94;69.44;94162.69;5091108;28;20229;-46
2023/06/11 06:04:06;;;;;;;5.57;4.35;;;;;;;22.17;69.78;94172.41;5091679;28;20627;-44
2023/06/11 06:06:33;;;;;;;7.13;3.88;;;;;;;22.35;69.22;94168.94;5091241;28;20588;-48
2023/06/11 06:09:00;;;;;;;8.02;3.92;;;;;;;22.57;67.92;94172.63;5091039;28;20193;-45
2023/06/11 06:11:27;;;;;;;4.78;4.30;;;;;;;22.72;67.68;94172.19;5091034;28;20196;-45
2023/06/11 06:13:53;;;;;;;5.20;4.00;;;;;;;22.89;67.20;94167.91;5091039;28;20193;-45
2023/06/11 06:16:20;;;;;;;4.18;3.78;;;;;;;23.16;67.28;94170.06;5090591;28;20696;-44
2023/06/11 06:18:47;;;;;;;4.78;3.50;;;;;;;23.42;66.28;94169.59;5090960;28;20395;-47
2023/06/11 06:21:15;;;;;;;4.55;4.10;;;;;;;23.62;64.88;94169.22;5090706;28;20224;-46
2023/06/11 06:23:42;;;;;;;4.65;4.20;;;;;;;23.83;64.45;94164.38;5090586;28;20285;-45
2023/06/11 06:26:09;;;;;;;6.40;3.83;;;;;;;23.96;63.80;94171.94;5090306;28;20190;-46
2023/06/11 06:28:36;;;;;;;7.35;3.78;;;;;;;24.07;63.12;94168.50;5090665;28;20190;-45
2023/06/11 06:31:07;;;;;;;5.18;3.97;;;;;;;23.91;63.04;94148.34;5090418;28;20194;-41
2023/06/11 06:33:37;;;;;;;4.55;3.83;;;;;;;24.17;63.77;94173.91;5090446;28;20243;-44
2023/06/11 06:36:04;;;;;;;9.25;4.20;;;;;;;24.42;63.38;94172.78;5090227;28;20280;-44
2023/06/11 06:38:35;;;;;;;4.53;3.78;;;;;;;24.61;62.34;94168.94;5090471;28;20190;-46
2023/06/11 06:41:02;;;;;;;5.85;3.97;;;;;;;24.63;61.56;94168.69;5090435;28;20612;-46
2023/06/11 06:43:28;;;;;;;4.75;4.30;;;;;;;24.55;61.10;94175.09;5089914;28;20581;-45
2023/06/11 06:45:55;;;;;;;7.85;4.35;;;;;;;24.45;62.09;94172.31;5090422;28;20201;-46
2023/06/11 06:48:23;;;;;;;7.55;4.45;;;;;;;24.43;62.13;94167.31;5090044;28;20625;-46
2023/06/11 06:50:50;;;;;;;4.55;4.15;;;;;;;24.56;62.16;94171.44;5090346;28;20193;-44
2023/06/11 06:53:16;;;;;;;4.30;3.90;;;;;;;24.75;62.36;94172.03;5089977;28;20278;-44
2023/06/11 06:55:45;;;;;;;4.63;4.22;;;;;;;25.03;61.66;94174.53;5090090;28;20197;-45
2023/06/11 06:58:12;;;;;;;6.57;4.25;;;;;;;25.14;61.06;94145.94;5089176;28;20280;-45
2023/06/11 07:00:38;;;;;;;7.75;4.53;;;;;;;25.38;60.21;94165.59;5089877;28;20225;-46
2023/06/11 07:03:05;;;;;;;5.25;4.55;;;;;;;25.60;59.91;94167.44;5089867;28;20246;-45
2023/06/11 07:05:32;;;;;;;6.45;4.40;;;;;;;25.64;58.87;94163.31;5090115;28;20200;-46
2023/06/11 07:07:59;;;;;;;7.90;5.57;;;;;;;25.67;58.46;94160.19;5089848;28;20201;-44
2023/06/11 07:10:25;;;;;;;4.78;4.07;;;;;;;25.79;59.05;94163.53;5089931;28;20194;-46
2023/06/11 07:12:54;;;;;;;8.10;4.25;;;;;;;25.91;58.90;94156.31;5089616;28;20196;-43
2023/06/11 07:15:20;;;;;;;7.28;4.15;;;;;;;26.07;58.86;94161.69;5089808;28;20201;-45
2023/06/11 07:17:47;;;;;;;9.60;7.30;;;;;;;26.26;56.76;94168.19;5089646;28;20249;-46
2023/06/11 07:20:14;;;;;;;6.45;5.20;;;;;;;26.20;57.16;94161.31;5089808;28;20220;-47
2023/06/11 07:22:41;;;;;;;7.57;4.80;;;;;;;26.14;56.90;94162.31;5089760;28;20213;-46
2023/06/11 07:25:08;;;;;;;7.18;4.00;;;;;;;26.10;57.18;94159.38;5089481;28;20634;-45
2023/06/11 07:27:35;;;;;;;8.88;4.65;;;;;;;26.10;57.25;94153.34;5089711;28;20193;-46
2023/06/11 07:30:04;;;;;;;5.78;4.28;;;;;;;26.33;56.79;94155.66;5089258;28;20197;-45
2023/06/11 07:32:30;;;;;;;6.55;5.13;;;;;;;26.58;55.51;94163.00;5089491;28;20196;-45
2023/06/11 07:34:57;;;;;;;9.02;5.28;;;;;;;26.87;55.20;94153.00;5089364;28;20205;-47
2023/06/11 07:37:24;;;;;;;9.52;5.20;;;;;;;27.13;53.97;94161.84;5089371;28;20216;-46
2023/06/11 07:39:51;;;;;;;5.40;4.57;;;;;;;27.26;53.42;94134.34;5089433;28;20193;-47
2023/06/11 07:42:17;;;;;;;6.32;4.65;;;;;;;27.70;52.79;94155.81;5089325;28;20285;-47
2023/06/11 07:44:44;;;;;;;7.05;4.50;;;;;;;28.10;51.86;94146.47;5089332;28;20250;-46
2023/06/11 07:47:12;;;;;;;10.32;4.88;;;;;;;28.45;49.64;94160.75;5089682;28;20697;-48
2023/06/11 07:49:39;;;;;;;5.80;4.78;;;;;;;28.23;49.50;94147.81;5089459;28;20197;-46
2023/06/11 07:52:06;;;;;;;5.90;4.85;;;;;;;28.09;50.46;94147.53;5089206;28;20684;-47
2023/06/11 07:54:33;;;;;;;6.53;4.22;;;;;;;28.39;50.13;94146.81;5089667;28;20217;-47
2023/06/11 07:57:00;;;;;;;6.60;5.03;;;;;;;28.47;49.75;94135.78;5089234;28;20190;-47
2023/06/11 07:59:29;;;;;;;5.22;4.72;;;;;;;28.29;49.94;94143.38;5089564;28;20189;-46
2023/06/11 08:01:56;;;;;;;6.07;4.35;;;;;;;28.29;49.36;94138.91;5089306;28;20217;-47
2023/06/11 08:04:25;;;;;;;6.25;4.80;;;;;;;28.26;49.20;94137.56;5089380;28;20251;-44
2023/06/11 08:06:54;;;;;;;7.82;4.30;;;;;;;28.50;48.70;94139.75;5089319;28;20198;-44
2023/06/11 08:09:20;;;;;;;6.18;4.28;;;;;;;28.62;48.15;94127.09;5093041;28;20186;-45
2023/06/11 08:11:47;;;;;;;14.52;4.57;;;;;;;28.68;48.60;94141.06;5093628;28;20197;-47
2023/06/11 08:14:18;;;;;;;5.07;4.57;;;;;;;28.57;48.59;94135.00;5093136;28;20200;-46
2023/06/11 08:16:45;;;;;;;5.68;4.10;;;;;;;28.70;47.39;94136.31;5092755;28;20225;-45
2023/06/11 08:19:12;;;;;;;4.32;3.90;;;;;;;28.68;47.79;94146.31;5093010;28;20212;-47
2023/06/11 08:21:41;;;;;;;6.95;4.30;;;;;;;28.63;47.83;94138.44;5092754;28;20727;-45
2023/06/11 08:24:08;;;;;;;8.18;4.10;;;;;;;28.82;47.13;94136.81;5092902;28;20614;-47
2023/06/11 08:26:35;;;;;;;6.78;3.90;;;;;;;28.73;47.04;94136.56;5092813;28;20193;-45
2023/06/11 08:29:02;;;;;;;6.10;4.57;;;;;;;28.64;46.76;94138.16;5092835;28;20190;-45
2023/06/11 08:31:28;;;;;;;5.82;4.55;;;;;;;28.69;47.40;94134.72;5092780;28;20657;-44
2023/06/11 08:33:55;;;;;;;4.85;3.80;;;;;;;28.78;46.82;94132.34;5092601;28;20734;-44
2023/06/11 08:36:22;;;;;;;4.90;3.83;;;;;;;28.88;47.08;94125.22;5092665;28;20629;-46
2023/06/11 08:38:50;;;;;;;4.82;4.32;;;;;;;28.70;46.32;94121.28;5092573;28;20190;-46
2023/06/11 08:41:17;;;;;;;4.30;3.90;;;;;;;28.56;47.21;94125.53;5092779;28;20573;-44
2023/06/11 08:43:44;;;;;;;8.55;4.20;;;;;;;28.73;47.01;94133.16;5092405;28;20194;-45
2023/06/11 08:46:14;;;;;;;5.97;4.63;;;;;;;28.82;45.83;94131.56;5092710;28;20197;-48
2023/06/11 08:48:42;;;;;;;8.55;5.00;;;;;;;28.85;45.91;94135.50;5092198;28;20681;-45
2023/06/11 08:51:10;;;;;;;6.78;4.18;;;;;;;28.76;45.74;94145.78;5092511;28;20237;-47
2023/06/11 08:53:38;;;;;;;5.43;4.57;;;;;;;28.69;44.21;94150.53;5092080;28;20744;-46
2023/06/11 08:56:07;;;;;;;6.57;5.00;;;;;;;28.52;44.23;94129.72;5092314;28;20200;-46
2023/06/11 08:58:35;;;;;;;5.82;4.78;;;;;;;28.48;44.97;94123.41;5092069;28;20189;-45
2023/06/11 09:01:09;;;;;;;7.32;4.80;;;;;;;28.55;45.75;94131.06;5092211;28;20232;-45
2023/06/11 09:03:36;;;;;;;5.72;4.38;;;;;;;28.47;46.08;94130.53;5092118;28;20289;-45
2023/06/11 09:06:03;;;;;;;4.65;4.15;;;;;;;28.41;46.41;94107.09;5092680;28;20185;-46
2023/06/11 09:08:30;;;;;;;10.85;5.30;;;;;;;28.60;46.28;94123.16;5092034;28;20661;-46
2023/06/11 09:10:56;;;;;;;6.97;5.00;;;;;;;28.61;46.01;94124.72;5092039;28;20186;-46
2023/06/11 09:13:27;;;;;;;6.63;4.30;;;;;;;28.59;46.15;94108.44;5092053;28;20225;-45
2023/06/11 09:15:56;;;;;;;9.75;5.13;;;;;;;28.69;45.44;94117.09;5092047;28;20233;-46
2023/06/11 09:18:25;;;;;;;6.20;4.53;;;;;;;28.69;45.11;94122.34;5091763;28;20232;-43
2023/06/11 09:20:53;;;;;;;8.60;4.85;;;;;;;28.53;45.58;94089.22;5091244;28;20251;-45
2023/06/11 09:23:27;;;;;;;5.97;4.40;;;;;;;28.81;44.58;94105.50;5092058;28;20213;-46
2023/06/11 09:25:54;;;;;;;6.93;4.45;;;;;;;28.88;43.68;94106.00;5092181;28;20201;-45
2023/06/11 09:28:21;;;;;;;6.90;5.05;;;;;;;28.68;44.90;94104.22;5092272;28;20205;-47
2023/06/11 09:30:56;;;;;;;10.05;5.05;;;;;;;28.69;45.29;94111.81;5091872;28;20194;-46
2023/06/11 09:33:23;;;;;;;7.53;5.03;;;;;;;28.65;44.85;94096.84;5091897;28;20306;-47
2023/06/11 09:35:50;;;;;;;6.90;4.47;;;;;;;28.76;45.61;94098.41;5091518;28;20194;-44
2023/06/11 09:38:19;;;;;;;9.43;5.32;;;;;;;28.74;45.15;94103.91;5091553;28;20232;-45
2023/06/11 09:40:47;;;;;;;8.30;4.78;;;;;;;28.71;44.77;94101.03;5091507;28;20204;-43
2023/06/11 09:43:14;;;;;;;7.15;4.50;;;;;;;28.68;43.00;94110.25;5091518;28;20295;-45
2023/06/11 09:45:42;;;;;;;5.60;4.45;;;;;;;28.55;43.78;94092.38;5091430;28;20270;-46
2023/06/11 09:48:12;;;;;;;7.57;4.70;;;;;;;28.50;44.13;94090.53;5091421;28;20194;-44
2023/06/11 09:50:39;;;;;;;6.65;4.40;;;;;;;28.60;44.60;94096.84;5091035;28;20194;-46
2023/06/11 09:53:08;;;;;;;5.45;4.60;;;;;;;28.52;45.10;94098.16;5091296;28;20285;-46
2023/06/11 09:55:36;;;;;;;6.38;4.82;;;;;;;28.54;44.81;94097.88;5090928;28;20679;-47
2023/06/11 09:58:03;;;;;;;8.80;4.47;;;;;;;28.55;43.88;94092.38;5091344;28;20189;-44
2023/06/11 10:00:31;;;;;;;5.93;4.85;;;;;;;28.49;42.99;94096.84;5090972;28;20239;-46
2023/06/11 10:02:58;;;;;;;6.28;4.70;;;;;;;28.44;43.89;94085.53;5091359;28;20252;-44
2023/06/11 10:05:26;;;;;;;7.85;4.38;;;;;;;28.26;44.64;94071.81;5090945;28;20194;-46
2023/06/11 10:08:05;;;;;;;7.90;5.10;;;;;;;28.20;44.98;94048.44;5091299;28;20197;-44
2023/06/11 10:10:38;;;;;;;6.22;4.53;;;;;;;28.40;44.80;94087.09;5090739;28;20573;-45
2023/06/11 10:13:05;;;;;;;7.10;4.97;;;;;;;28.39;44.03;94090.81;5090866;28;20200;-48
2023/06/11 10:15:33;;;;;;;5.93;4.65;;;;;;;28.50;42.78;94073.97;5090544;28;20193;-47
2023/06/11 10:18:00;;;;;;;6.68;4.78;;;;;;;28.61;43.40;94080.00;5090797;28;20196;-46
2023/06/11 10:20:31;;;;;;;7.28;6.10;;;;;;;28.64;44.11;94080.25;5090544;28;20197;-46
2023/06/11 10:23:05;;;;;;;7.72;6.72;;;;;;;28.61;42.65;94078.16;5090951;28;20253;-46
2023/06/11 10:25:36;;;;;;;9.23;5.88;;;;;;;28.66;42.18;94069.47;5090690;28;20232;-45
2023/06/11 10:28:05;;;;;;;5.93;5.25;;;;;;;28.79;41.24;94068.91;5090662;28;20194;-47
2023/06/11 10:30:34;;;;;;;7.82;5.13;;;;;;;28.83;41.55;94059.44;5090593;28;20270;-43
2023/06/11 10:33:01;;;;;;;6.05;4.70;;;;;;;28.95;42.04;94056.50;5089520;28;20284;-45
2023/06/11 10:35:32;;;;;;;5.35;4.72;;;;;;;28.74;42.21;94032.09;5090318;28;20565;-45
2023/06/11 10:38:04;;;;;;;8.93;4.63;;;;;;;28.85;42.54;94059.19;5090396;28;20197;-46
2023/06/11 10:40:39;;;;;;;9.00;5.63;;;;;;;28.72;43.03;94061.31;5090168;28;20190;-46
2023/06/11 10:43:15;;;;;;;6.43;5.25;;;;;;;28.70;42.94;94067.88;5090187;28;20312;-43
2023/06/11 10:45:42;;;;;;;8.48;5.20;;;;;;;28.64;42.94;94059.22;5089952;28;20278;-47
2023/06/11 10:48:10;;;;;;;7.07;4.50;;;;;;;28.59;42.87;94056.59;5090225;28;20193;-45
2023/06/11 10:50:39;;;;;;;5.63;4.85;;;;;;;28.57;41.20;94057.91;5090214;28;20194;-46
2023/06/11 10:53:11;;;;;;;7.20;5.35;;;;;;;28.34;42.02;94054.75;5090514;28;20189;-46
2023/06/11 10:55:43;;;;;;;7.75;5.47;;;;;;;28.19;41.85;94046.84;5090057;28;20571;-46
2023/06/11 10:58:19;;;;;;;9.73;5.38;;;;;;;28.23;42.21;94045.25;5090091;28;20189;-45
2023/06/11 11:00:47;;;;;;;6.00;5.30;;;;;;;28.26;41.95;94042.13;5089842;28;20198;-47
2023/06/11 11:03:13;;;;;;;6.45;5.03;;;;;;;28.35;41.96;94042.38;5090204;28;20247;-45
2023/06/11 11:05:43;;;;;;;5.60;4.72;;;;;;;28.37;42.33;94043.72;5089950;28;20277;-46
2023/06/11 11:08:11;;;;;;;7.15;4.88;;;;;;;28.43;42.85;94037.41;5089982;28;20263;-45
2023/06/11 11:10:38;;;;;;;7.43;4.57;;;;;;;28.50;43.52;94045.03;5089646;28;20229;-47
2023/06/11 11:13:05;;;;;;;5.35;4.85;;;;;;;28.49;43.56;94043.44;5090125;28;20189;-46
2023/06/11 11:15:32;;;;;;;6.47;4.95;;;;;;;28.50;43.67;94055.56;5089676;28;20197;-44
2023/06/11 11:17:59;;;;;;;11.52;4.90;;;;;;;28.51;43.86;94057.13;5089735;28;20225;-47
2023/06/11 11:20:26;;;;;;;6.22;5.10;;;;;;;28.54;43.24;94048.72;5089874;28;20185;-46
2023/06/11 11:22:56;;;;;;;9.57;5.43;;;;;;;28.18;42.62;93977.69;5089415;28;20635;-46
2023/06/11 11:25:27;;;;;;;5.32;4.47;;;;;;;28.74;42.23;94034.72;5089543;28;20194;-46
2023/06/11 11:27:55;;;;;;;5.72;5.05;;;;;;;28.68;42.35;94028.69;5089453;28;20729;-46
2023/06/11 11:30:21;;;;;;;7.70;5.53;;;;;;;28.80;42.18;94043.38;5089850;28;20216;-46
2023/06/11 11:32:49;;;;;;;9.82;5.40;;;;;;;28.78;42.14;94038.38;5089528;28;20193;-45
2023/06/11 11:35:16;;;;;;;7.50;4.53;;;;;;;28.56;42.86;94024.75;5089627;28;20190;-46
2023/06/11 11:37:47;;;;;;;5.65;3.92;;;;;;;28.36;45.23;94055.28;5089268;28;20679;-45